Latest Coastal Weather Observations for Portland Harbour

IDS60701

Issued at 11:25 pm CST Tuesday 30 September 2014 (issued every 10 minutes, with the page automatically refreshed every 10 minutes)

About coastal observations | Map of coastal stations | Coastal observations for SA | Marine services | Other Formats
Station Details ID: 090192 Name: PORTLAND NTC AWS Lat: -38.34 Lon: 141.61 Height: 0.0 m
Data from the previous 72 hours. | See also: Recent months for locations in South Australia
Date/Time
CST
Temp

°C
Wind Pressure Rain
since 9am
mm
Weather Cloud Vis
km
Sea
Height
m
Swell
Dir
 
Speed
knots
Gust
knots
hPa Trend Height
m
Period
s
Dir
30/11:21pm 10.7 SW 15 25 1017.5 - - - - - - - - -
30/11:00pm 9.4 WSW 13 20 1017.2 - - - - - - - - -
30/10:48pm 9.5 SW 15 25 1017.3 - - - - - - - - -
30/10:30pm 11.1 SW 18 25 1017.0 - - - - - - - - -
30/10:06pm 10.8 WSW 17 29 1016.6 - - - - - - - - -
30/10:00pm 10.6 WSW 19 26 1016.7 - - - - - - - - -
30/09:35pm 11.0 SW 21 32 1016.2 - - - - - - - - -
30/09:30pm 10.8 SW 19 27 1016.0 - - - - - - - - -
30/09:00pm 10.9 WSW 20 32 1015.6 - - - - - - - - -
30/08:31pm 11.0 WSW 16 26 1014.9 - - - - - - - - -
30/08:30pm 10.9 WSW 16 24 1015.0 - - - - - - - - -
30/08:00pm 10.8 WSW 17 26 1014.4 - - - - - - - - -
30/07:41pm 8.8 W 13 17 1014.1 - - - - - - - - -
30/07:30pm 10.8 WSW 23 34 1013.9 - - - - - - - - -
30/07:06pm 11.4 WSW 19 29 1013.1 - - - - - - - - -
30/07:00pm 11.6 WSW 20 29 1013.0 - - - - - - - - -
30/06:45pm 11.4 WSW 16 27 1012.6 - - - - - - - - -
30/06:30pm 11.1 W 14 22 1012.4 - - - - - - - - -
30/06:00pm 10.7 W 14 22 1012.0 - - - - - - - - -
30/05:30pm 11.3 WSW 23 34 1011.7 - - - - - - - - -
30/05:00pm 12.3 WSW 19 29 1011.0 - - - - - - - - -
30/04:30pm 12.4 WSW 22 33 1010.6 - - - - - - - - -
30/04:00pm 12.2 W 22 38 1009.9 - - - - - - - - -
30/03:37pm 12.5 WSW 20 34 1009.3 - - - - - - - - -
30/03:30pm 12.4 WSW 20 29 1009.2 - - - - - - - - -
30/03:01pm 12.9 WSW 23 33 1008.6 - - - - - - - - -
30/03:00pm 13.0 WSW 22 31 1008.4 - - - - - - - - -
30/02:37pm 12.6 WSW 22 35 1008.3 - - - - - - - - -
30/02:30pm 13.6 WSW 20 29 1007.9 - - - - - - - - -
30/02:02pm 13.2 WSW 21 31 1007.3 - - - - - - - - -
30/02:00pm 13.2 WSW 22 31 1007.4 - - - - - - - - -
30/01:32pm 13.3 WSW 21 34 1007.2 - - - - - - - - -
30/01:30pm 13.1 W 21 31 1007.2 - - - - - - - - -
30/01:05pm 12.6 W 18 29 1006.4 - - - - - - - - -
30/01:00pm 12.3 W 19 29 1006.2 - - - - - - - - -
30/12:30pm 10.9 WSW 21 36 1006.7 - - - - - - - - -
30/12:20pm 11.0 WSW 22 32 1006.7 - - - - - - - - -
30/12:16pm 10.9 WSW 19 26 1006.5 - - - - - - - - -
30/12:00pm 10.5 WSW 31 41 1005.2 - - - - - - - - -
30/11:59am 10.5 W 31 41 1004.7 - - - - - - - - -
30/11:52am 11.4 W 20 34 1004.6 - - - - - - - - -
30/11:45am 11.1 W 19 26 1004.8 - - - - - - - - -
30/11:39am 11.3 WSW 33 44 1004.6 - - - - - - - - -
30/11:30am 14.4 W 19 33 1003.5 - - - - - - - - -
30/11:01am 12.4 W 17 27 1004.1 - - - - - - - - -
30/11:00am 12.4 W 18 27 1004.1 - - - - - - - - -
30/10:44am 12.8 WSW 23 34 1004.1 - - - - - - - - -
30/10:43am 13.1 WSW 20 28 1004.1 - - - - - - - - -
30/10:30am 14.3 NW 15 26 1003.8 - - - - - - - - -
30/10:04am 12.8 WNW 16 26 1004.2 - - - - - - - - -
30/10:00am 12.7 WNW 18 26 1004.2 - - - - - - - - -
30/09:34am 14.2 W 15 29 1004.5 - - - - - - - - -
30/09:30am 13.9 W 13 18 1004.6 - - - - - - - - -
30/09:00am 16.2 NW 19 30 1004.1 - - - - - - - - -
30/08:30am 16.3 NW 19 33 1004.2 - - - - - - - - -
30/08:01am 15.9 NW 18 30 1004.7 - - - - - - - - -
30/08:00am 15.9 NW 17 27 1004.8 - - - - - - - - -
30/07:36am 15.6 NW 17 28 1004.8 - - - - - - - - -
30/07:30am 15.6 NNW 18 27 1004.8 - - - - - - - - -
30/07:23am 15.6 NNW 16 27 1004.8 - - - - - - - - -
30/07:00am 15.0 NNW 14 21 1005.0 - - - - - - - - -
30/06:30am 14.3 NNW 13 18 1005.5 - - - - - - - - -
30/06:00am 14.0 NNW 13 20 1005.6 - - - - - - - - -
30/05:30am 13.9 NNW 13 17 1005.6 - - - - - - - - -
30/05:00am 14.2 NNW 15 21 1005.6 - - - - - - - - -
30/04:32am 14.1 NNW 15 25 1005.9 - - - - - - - - -
30/04:30am 13.9 NNW 14 25 1006.1 - - - - - - - - -
30/04:15am 14.2 NNW 17 28 1006.2 - - - - - - - - -
30/04:00am 13.9 NNW 14 20 1006.0 - - - - - - - - -
30/03:30am 13.5 NNW 13 18 1006.7 - - - - - - - - -
30/03:00am 12.8 NNW 11 14 1006.9 - - - - - - - - -
30/02:30am 12.4 NNW 11 14 1007.4 - - - - - - - - -
30/02:00am 12.2 NNW 11 13 1007.9 - - - - - - - - -
30/01:30am 11.7 N 12 14 1008.2 - - - - - - - - -
30/01:00am 11.8 NNW 10 12 1008.7 - - - - - - - - -
30/12:30am 12.0 N 10 11 1009.0 - - - - - - - - -
30/12:00am 11.9 NNW 10 12 1009.5 - - - - - - - - -
 
Date/Time
CST
Temp

°C
Wind Pressure Rain
since 9am
mm
Weather Cloud Vis
km
Sea
Height
m
Swell
Dir
 
Speed
knots
Gust
knots
hPa Trend Height
m
Period
s
Dir
29/11:30pm 12.1 NNW 9 11 1009.7 - - - - - - - - -
29/11:00pm 12.3 NNW 8 10 1010.1 - - - - - - - - -
29/10:30pm 12.7 NNW 5 8 1010.4 - - - - - - - - -
29/10:00pm 13.1 NNW 8 11 1010.7 - - - - - - - - -
29/09:30pm 13.4 NW 6 10 1010.9 - - - - - - - - -
29/09:00pm 13.8 WNW 8 14 1011.2 - - - - - - - - -
29/08:30pm 14.0 WNW 9 14 1011.3 - - - - - - - - -
29/08:00pm 14.0 WNW 8 12 1011.3 - - - - - - - - -
29/07:30pm 14.1 W 7 14 1011.3 - - - - - - - - -
29/07:00pm 14.3 WNW 7 11 1010.9 - - - - - - - - -
29/06:30pm 14.7 W 11 16 1010.5 - - - - - - - - -
29/06:00pm 14.9 W 12 18 1010.0 - - - - - - - - -
29/05:30pm 15.1 W 13 21 1009.8 - - - - - - - - -
29/05:00pm 15.7 W 16 23 1009.6 - - - - - - - - -
29/04:30pm 15.7 W 17 24 1009.4 - - - - - - - - -
29/04:00pm 16.3 W 16 27 1009.4 - - - - - - - - -
29/03:50pm 16.3 W 18 28 1009.4 - - - - - - - - -
29/03:30pm 16.4 W 17 23 1009.5 - - - - - - - - -
29/03:00pm 16.4 W 17 24 1009.8 - - - - - - - - -
29/02:30pm 16.4 W 16 24 1010.0 - - - - - - - - -
29/02:00pm 17.4 W 14 19 1010.2 - - - - - - - - -
29/01:30pm 16.8 W 15 21 1010.3 - - - - - - - - -
29/01:00pm 17.1 W 14 21 1010.7 - - - - - - - - -
29/12:30pm 16.6 W 14 20 1010.9 - - - - - - - - -
29/12:00pm 16.4 W 13 20 1011.0 - - - - - - - - -
29/11:30am 16.2 WNW 12 18 1011.1 - - - - - - - - -
29/11:00am 15.6 WNW 15 20 1011.4 - - - - - - - - -
29/10:30am 15.4 W 16 23 1011.6 - - - - - - - - -
29/10:00am 15.2 WNW 14 22 1011.8 - - - - - - - - -
29/09:30am 14.6 WNW 15 22 1012.0 - - - - - - - - -
29/09:00am 14.7 WNW 15 23 1012.1 - - - - - - - - -
29/08:30am 14.6 WNW 13 22 1012.0 - - - - - - - - -
29/08:00am 13.8 WNW 11 14 1011.8 - - - - - - - - -
29/07:30am 12.8 NNW 8 12 1011.8 - - - - - - - - -
29/07:00am 12.2 NNW 11 15 1011.6 - - - - - - - - -
29/06:30am 12.1 N 11 13 1011.4 - - - - - - - - -
29/06:00am 12.8 NNW 5 10 1010.9 - - - - - - - - -
29/05:30am 13.0 WNW 5 7 1010.5 - - - - - - - - -
29/05:00am 13.3 W 10 16 1010.2 - - - - - - - - -
29/04:30am 13.3 W 10 15 1009.9 - - - - - - - - -
29/04:00am 13.4 W 11 16 1009.6 - - - - - - - - -
29/03:30am 13.5 W 7 10 1009.3 - - - - - - - - -
29/03:00am 13.9 W 11 17 1008.9 - - - - - - - - -
29/02:30am 13.8 W 11 18 1008.7 - - - - - - - - -
29/02:00am 13.7 W 12 19 1008.2 - - - - - - - - -
29/01:30am 13.7 W 13 20 1008.2 - - - - - - - - -
29/01:01am 13.5 W 16 27 1008.5 - - - - - - - - -
29/01:00am 13.6 W 17 27 1008.5 - - - - - - - - -
29/12:30am 14.3 W 17 26 1008.0 - - - - - - - - -
29/12:08am 14.3 WNW 17 30 1007.7 - - - - - - - - -
29/12:00am 14.1 WNW 17 26 1007.5 - - - - - - - - -
 
Date/Time
CST
Temp

°C
Wind Pressure Rain
since 9am
mm
Weather Cloud Vis
km
Sea
Height
m
Swell
Dir
 
Speed
knots
Gust
knots
hPa Trend Height
m
Period
s
Dir
28/11:30pm 14.5 WNW 15 22 1007.4 - - - - - - - - -
28/11:00pm 14.2 WNW 15 21 1007.2 - - - - - - - - -
28/10:30pm 13.6 NW 11 17 1007.2 - - - - - - - - -
28/10:00pm 13.7 NW 13 20 1007.0 - - - - - - - - -
28/09:30pm 13.8 NW 11 17 1006.9 - - - - - - - - -
28/09:00pm 13.9 NW 11 16 1006.7 - - - - - - - - -
28/08:30pm 13.9 NW 8 12 1006.5 - - - - - - - - -
28/08:00pm 14.2 NW 9 13 1006.1 - - - - - - - - -
28/07:30pm 14.4 WNW 11 15 1005.8 - - - - - - - - -
28/07:00pm 14.4 WNW 9 13 1005.4 - - - - - - - - -
28/06:30pm 14.5 WNW 9 14 1005.2 - - - - - - - - -
28/06:00pm 14.8 W 11 17 1004.7 - - - - - - - - -
28/05:30pm 15.5 W 13 20 1004.3 - - - - - - - - -
28/05:00pm 15.9 W 18 29 1004.1 - - - - - - - - -
28/04:31pm 16.7 WSW 17 28 1003.7 - - - - - - - - -
28/04:30pm 16.6 WSW 18 28 1003.7 - - - - - - - - -
28/04:17pm 16.9 W 15 28 1003.5 - - - - - - - - -
28/04:00pm 16.6 WSW 20 29 1003.3 - - - - - - - - -
28/03:30pm 17.8 W 22 39 1002.6 - - - - - - - - -
28/03:03pm 22.5 W 17 31 1001.5 - - - - - - - - -
28/03:00pm 23.5 W 15 21 1001.6 - - - - - - - - -
28/02:30pm 24.3 WNW 26 41 1001.3 - - - - - - - - -
28/02:00pm 25.2 NW 25 39 1000.7 - - - - - - - - -
28/01:30pm 25.3 NW 22 32 1000.6 - - - - - - - - -
28/01:00pm 25.2 NW 19 31 1001.3 - - - - - - - - -
28/12:30pm 25.1 NNW 20 31 1001.8 - - - - - - - - -
28/12:00pm 25.0 NNW 20 30 1002.4 - - - - - - - - -
28/11:30am 25.1 NW 25 41 1003.0 - - - - - - - - -
28/11:11am 25.8 NW 25 44 1003.0 - - - - - - - - -
28/11:00am 25.8 NW 20 32 1002.9 - - - - - - - - -
28/10:31am 25.4 NNW 25 36 1003.1 - - - - - - - - -
28/10:30am 25.2 NNW 26 36 1002.9 - - - - - - - - -
28/10:00am 24.7 NNW 28 39 1003.0 - - - - - - - - -
28/09:30am 24.9 NNW 26 38 1003.5 - - - - - - - - -
28/09:00am 24.4 NNW 25 38 1003.8 - - - - - - - - -
28/08:51am 24.4 NNW 31 42 1003.3 - - - - - - - - -
28/08:50am 24.4 NNW 33 42 1003.3 - - - - - - - - -
28/08:39am 24.5 NNW 20 32 1004.3 - - - - - - - - -
28/08:30am 24.3 WNW 19 30 1005.1 - - - - - - - - -
28/08:26am 23.8 WNW 19 30 1005.0 - - - - - - - - -
28/08:25am 23.6 WNW 19 27 1004.7 - - - - - - - - -
28/08:23am 23.4 NNW 24 34 1004.1 - - - - - - - - -
28/08:00am 21.2 N 26 35 1002.5 - - - - - - - - -
28/07:30am 20.4 N 27 35 1002.7 - - - - - - - - -
28/07:00am 20.0 N 25 30 1003.0 - - - - - - - - -
28/06:30am 19.8 N 26 33 1003.2 - - - - - - - - -
28/06:00am 19.5 N 21 27 1004.2 - - - - - - - - -
28/05:30am 19.8 N 16 20 1004.7 - - - - - - - - -
28/05:00am 19.4 N 16 19 1004.7 - - - - - - - - -
28/04:30am 19.3 N 17 22 1005.0 - - - - - - - - -
28/04:00am 19.4 N 18 22 1005.1 - - - - - - - - -
28/03:30am 19.3 N 17 20 1005.7 - - - - - - - - -
28/03:00am 18.4 N 13 14 1006.5 - - - - - - - - -
28/02:30am 18.9 N 15 17 1006.6 - - - - - - - - -
28/02:00am 19.1 N 16 19 1007.1 - - - - - - - - -
28/01:30am 18.5 N 13 15 1007.7 - - - - - - - - -
28/01:00am 18.2 N 15 17 1008.3 - - - - - - - - -
28/12:30am 18.9 N 16 20 1008.5 - - - - - - - - -
28/12:00am 18.6 N 14 17 1008.8 - - - - - - - - -
 
Date/Time
CST
Temp

°C
Wind Pressure Rain
since 9am
mm
Weather Cloud Vis
km
Sea
Height
m
Swell
Dir
 
Speed
knots
Gust
knots
hPa Trend Height
m
Period
s
Dir
27/11:30pm 18.4 N 14 17 1009.0 - - - - - - - - -
27/11:00pm 18.0 N 13 15 1009.4 - - - - - - - - -

Other Formats:

Comma delimited format used in spreadsheet applications
http://www.bom.gov.au/fwo/IDS60701/IDS60701.95826.axf

JavaScript Object Notation format (JSON) in row-major order
http://www.bom.gov.au/fwo/IDS60701/IDS60701.95826.json